createdAt,value
2019-05-17T00:00:11.319Z,11.32
2019-05-17T00:02:46.433Z,11.42
2019-05-17T00:05:17.759Z,11.49
2019-05-17T00:07:48.865Z,11.45
2019-05-17T00:10:19.767Z,11.32
2019-05-17T00:12:50.910Z,11.46
2019-05-17T00:15:21.862Z,11.49
2019-05-17T00:17:53.094Z,11.46
2019-05-17T00:20:26.470Z,11.52
2019-05-17T00:22:57.483Z,11.58
2019-05-17T00:25:28.535Z,11.42
2019-05-17T00:27:59.694Z,11.45
2019-05-17T00:30:31.074Z,11.57
2019-05-17T00:33:02.167Z,11.49
2019-05-17T00:35:33.340Z,11.52
2019-05-17T00:38:06.566Z,11.65
2019-05-17T00:40:37.598Z,11.42
2019-05-17T00:43:08.707Z,11.31
2019-05-17T00:45:40.344Z,11.33
2019-05-17T00:48:11.540Z,11.34
2019-05-17T00:50:42.805Z,11.38
2019-05-17T00:53:16.244Z,11.32
2019-05-17T00:55:47.230Z,11.33
2019-05-17T00:58:18.231Z,11.28
2019-05-17T01:00:49.858Z,11.23
2019-05-17T01:03:20.976Z,11.27
2019-05-17T01:05:51.964Z,11.24
2019-05-17T01:08:23.052Z,11.32
2019-05-17T01:10:56.483Z,11.38
2019-05-17T01:13:27.257Z,11.21
2019-05-17T01:15:58.878Z,11.19
2019-05-17T01:18:30.392Z,11.11
2019-05-17T01:21:01.797Z,11.18
2019-05-17T01:23:33.400Z,11.15
2019-05-17T01:26:07.311Z,11.16
2019-05-17T01:28:38.774Z,11.18
2019-05-17T01:31:10.048Z,11.23
2019-05-17T01:33:41.531Z,11.17
2019-05-17T01:36:12.977Z,11.25
2019-05-17T01:38:44.112Z,11.19
2019-05-17T01:41:17.188Z,11.11
2019-05-17T01:43:48.197Z,11.27
2019-05-17T01:46:19.533Z,11.14
2019-05-17T01:48:50.999Z,11.18
2019-05-17T01:51:22.258Z,11.19
2019-05-17T01:53:53.807Z,11.14
2019-05-17T01:56:26.256Z,11.14
2019-05-17T01:58:57.928Z,11.21
2019-05-17T02:01:29.548Z,11.20
2019-05-17T02:04:01.046Z,11.19
2019-05-17T02:06:32.486Z,11.20
2019-05-17T02:09:06.323Z,11.19
2019-05-17T02:11:37.997Z,11.28
2019-05-17T02:14:09.151Z,11.21
2019-05-17T02:16:40.404Z,11.15
2019-05-17T02:19:11.810Z,11.19
2019-05-17T02:21:43.176Z,11.29
2019-05-17T02:24:16.951Z,11.33
2019-05-17T02:26:48.206Z,11.27
2019-05-17T02:29:21.443Z,11.23
2019-05-17T02:31:53.069Z,11.21
2019-05-17T02:34:24.037Z,11.20
2019-05-17T02:36:55.789Z,11.13
2019-05-17T02:39:27.216Z,11.12
2019-05-17T02:41:58.745Z,11.11
2019-05-17T02:44:33.155Z,11.00
2019-05-17T02:47:03.468Z,11.03
2019-05-17T02:49:34.716Z,11.14
2019-05-17T02:52:06.099Z,11.23
2019-05-17T02:54:37.414Z,11.13
2019-05-17T02:57:08.530Z,11.18
2019-05-17T02:59:39.763Z,11.18
2019-05-17T03:02:12.662Z,11.16
2019-05-17T03:04:44.249Z,11.18
2019-05-17T03:07:15.247Z,11.20
2019-05-17T03:09:46.286Z,11.19
2019-05-17T03:12:17.334Z,11.13
2019-05-17T03:14:48.609Z,11.12
2019-05-17T03:17:22.961Z,11.04
2019-05-17T03:19:53.427Z,11.12
2019-05-17T03:22:24.770Z,11.09
2019-05-17T03:24:56.229Z,11.14
2019-05-17T03:27:27.371Z,11.22
2019-05-17T03:29:58.946Z,11.31
2019-05-17T03:32:35.810Z,11.13
2019-05-17T03:35:06.669Z,11.23
2019-05-17T03:37:37.888Z,11.29
2019-05-17T03:40:24.926Z,11.43
2019-05-17T03:42:43.713Z,11.43
2019-05-17T03:45:15.119Z,11.35
2019-05-17T03:47:46.783Z,11.38
2019-05-17T03:50:18.011Z,11.42
2019-05-17T03:52:49.400Z,11.44
2019-05-17T03:55:23.251Z,11.50
2019-05-17T03:57:53.679Z,11.53
2019-05-17T04:00:25.013Z,11.46
2019-05-17T04:02:56.498Z,11.55
2019-05-17T04:05:27.890Z,11.42
2019-05-17T04:07:59.011Z,11.44
2019-05-17T04:10:33.012Z,11.34
2019-05-17T04:13:04.406Z,11.51
2019-05-17T04:15:35.900Z,11.53
2019-05-17T04:18:06.776Z,11.69
2019-05-17T04:20:38.026Z,11.63
2019-05-17T04:23:12.484Z,11.52
2019-05-17T04:25:43.486Z,11.61
2019-05-17T04:28:14.868Z,11.54
2019-05-17T04:30:45.893Z,11.57
2019-05-17T04:33:17.051Z,11.70
2019-05-17T04:35:48.152Z,11.68
2019-05-17T04:38:23.326Z,11.71
2019-05-17T04:40:53.808Z,11.68
2019-05-17T04:43:25.214Z,11.50
2019-05-17T04:45:56.493Z,11.71
2019-05-17T04:48:27.752Z,11.77
2019-05-17T04:50:58.878Z,11.83
2019-05-17T04:53:32.865Z,11.75
2019-05-17T04:56:03.485Z,11.72
2019-05-17T04:58:34.850Z,11.76
2019-05-17T05:01:06.070Z,11.73
2019-05-17T05:03:37.179Z,11.90
2019-05-17T05:06:08.190Z,11.78
2019-05-17T05:08:42.205Z,11.77
2019-05-17T05:11:12.684Z,11.74
2019-05-17T05:13:44.340Z,11.74
2019-05-17T05:16:15.449Z,11.80
2019-05-17T05:18:46.739Z,11.83
2019-05-17T05:21:18.358Z,11.87
2019-05-17T05:23:51.707Z,11.89
2019-05-17T05:26:22.395Z,11.88
2019-05-17T05:28:53.409Z,11.94
2019-05-17T05:31:24.599Z,12.05
2019-05-17T05:33:55.865Z,12.11
2019-05-17T05:36:27.027Z,12.17
2019-05-17T05:38:58.089Z,12.37
2019-05-17T05:41:29.052Z,12.32
2019-05-17T05:44:01.935Z,12.41
2019-05-17T05:46:33.319Z,12.28
2019-05-17T05:49:04.609Z,12.47
2019-05-17T05:51:35.771Z,12.50
2019-05-17T05:54:07.114Z,12.77
2019-05-17T05:56:38.272Z,13.08
2019-05-17T05:59:11.898Z,13.21
2019-05-17T06:01:42.771Z,13.18
2019-05-17T06:04:13.799Z,13.14
2019-05-17T06:06:44.910Z,13.15
2019-05-17T06:09:16.267Z,12.92
2019-05-17T06:11:47.639Z,13.16
2019-05-17T06:14:18.668Z,13.39
2019-05-17T06:16:52.001Z,13.24
2019-05-17T06:19:22.664Z,13.26
2019-05-17T06:21:54.327Z,13.18
2019-05-17T06:24:25.988Z,13.46
2019-05-17T06:26:57.128Z,13.26
2019-05-17T06:29:28.528Z,13.56
2019-05-17T06:32:02.380Z,13.84
2019-05-17T06:34:33.019Z,13.94
2019-05-17T06:37:04.205Z,14.07
2019-05-17T06:39:35.361Z,14.41
2019-05-17T06:42:06.263Z,15.13
2019-05-17T06:44:37.700Z,15.13
2019-05-17T06:47:11.722Z,15.39
2019-05-17T06:49:42.542Z,16.05
2019-05-17T06:52:13.552Z,16.56
2019-05-17T06:54:45.008Z,16.48
2019-05-17T06:57:16.233Z,16.39
2019-05-17T06:59:47.096Z,15.73
2019-05-17T07:02:19.742Z,15.45
2019-05-17T07:04:53.644Z,15.05
2019-05-17T07:07:30.146Z,16.00
2019-05-17T07:10:01.024Z,16.00
2019-05-17T07:12:33.358Z,16.11
2019-05-17T07:15:04.675Z,16.78
2019-05-17T07:17:35.822Z,16.26
2019-05-17T07:20:07.026Z,16.26
2019-05-17T07:22:40.736Z,17.59
2019-05-17T07:25:11.228Z,17.52
2019-05-17T07:27:45.749Z,17.44
2019-05-17T07:30:16.189Z,17.81
2019-05-17T07:32:49.836Z,18.00
2019-05-17T07:35:20.446Z,17.70
2019-05-17T07:37:51.543Z,17.71
2019-05-17T07:40:22.724Z,18.41
2019-05-17T07:43:06.922Z,18.61
2019-05-17T07:45:26.769Z,17.73
2019-05-17T07:48:00.026Z,18.03
2019-05-17T07:50:30.865Z,17.81
2019-05-17T07:53:02.156Z,17.25
2019-05-17T07:55:33.920Z,17.28
2019-05-17T07:58:05.144Z,16.97
2019-05-17T08:00:36.320Z,17.07
2019-05-17T08:03:12.110Z,16.94
2019-05-17T08:05:41.790Z,16.58
2019-05-17T08:08:12.607Z,16.76
2019-05-17T08:10:43.841Z,16.91
2019-05-17T08:13:25.890Z,17.01
2019-05-17T08:15:47.388Z,16.17
2019-05-17T08:18:20.363Z,16.71
2019-05-17T08:20:52.211Z,16.48
2019-05-17T08:23:24.495Z,16.42
2019-05-17T08:54:56.168Z,20.62
2019-05-17T08:57:30.079Z,20.11
2019-05-17T09:00:00.989Z,19.90
2019-05-17T09:02:33.498Z,19.90
2019-05-17T09:05:05.854Z,19.79
2019-05-17T09:07:37.154Z,19.65
2019-05-17T09:10:10.417Z,19.65
2019-05-17T09:12:43.472Z,18.67
2019-05-17T09:15:15.524Z,18.53
2019-05-17T09:17:47.073Z,19.01
2019-05-17T09:20:20.496Z,19.63
2019-05-17T09:22:52.981Z,19.99
2019-05-17T09:25:24.768Z,19.98
2019-05-17T09:27:56.701Z,19.89
2019-05-17T09:30:31.311Z,19.88
2019-05-17T09:33:02.166Z,19.90
2019-05-17T09:35:33.408Z,19.80
2019-05-17T09:38:04.615Z,19.82
2019-05-17T09:40:35.961Z,20.59
2019-05-17T09:43:09.863Z,21.06
2019-05-17T09:45:40.809Z,21.65
2019-05-17T09:48:13.097Z,22.02
2019-05-17T09:50:44.422Z,21.21
2019-05-17T09:53:16.492Z,21.38
2019-05-17T09:55:49.801Z,21.66
2019-05-17T09:58:21.789Z,22.32
2019-05-17T10:00:53.012Z,21.92
2019-05-17T10:03:24.762Z,22.27
2019-05-17T10:05:56.636Z,22.40
2019-05-17T10:08:27.971Z,21.80
2019-05-17T10:11:08.631Z,21.88
2019-05-17T10:13:31.685Z,22.46
2019-05-17T10:16:03.373Z,22.29
2019-05-17T10:18:35.266Z,22.42
2019-05-17T10:21:06.472Z,22.18
2019-05-17T10:23:37.350Z,22.35
2019-05-17T10:26:10.272Z,22.76
2019-05-17T10:28:42.979Z,22.40
2019-05-17T10:31:14.269Z,22.58
2019-05-17T10:33:45.836Z,22.39
2019-05-17T10:36:17.036Z,22.58
2019-05-17T10:38:50.227Z,22.77
2019-05-17T10:41:22.399Z,22.73
2019-05-17T10:43:53.844Z,23.04
2019-05-17T10:46:25.282Z,23.07
2019-05-17T10:48:56.460Z,23.31
2019-05-17T10:51:29.618Z,23.25
2019-05-17T10:54:04.043Z,23.53
2019-05-17T10:56:34.285Z,23.19
2019-05-17T10:59:05.988Z,22.61
2019-05-17T11:01:37.615Z,22.91
2019-05-17T11:04:10.457Z,23.22
2019-05-17T11:06:42.074Z,23.12
2019-05-17T11:09:13.586Z,23.03
2019-05-17T11:11:44.833Z,23.03
2019-05-17T11:14:16.341Z,23.19
2019-05-17T11:16:47.413Z,22.46
2019-05-17T11:19:19.131Z,22.37
2019-05-17T11:21:50.798Z,21.67
2019-05-17T11:24:21.932Z,21.92
2019-05-17T11:26:53.276Z,21.56
2019-05-17T11:29:24.441Z,21.36
2019-05-17T11:31:55.946Z,21.90
2019-05-17T11:34:27.025Z,21.94
2019-05-17T11:36:58.560Z,22.00
2019-05-17T11:39:29.885Z,21.79
2019-05-17T11:42:01.232Z,21.83
2019-05-17T11:44:32.775Z,21.61
2019-05-17T11:47:04.056Z,21.28
2019-05-17T11:49:35.302Z,21.15
2019-05-17T11:52:06.717Z,21.17
2019-05-17T11:54:37.564Z,20.83
2019-05-17T11:57:08.488Z,20.59
2019-05-17T11:59:39.576Z,20.78
2019-05-17T12:02:10.794Z,21.19
2019-05-17T12:04:42.384Z,21.65
2019-05-17T12:07:13.721Z,21.89
2019-05-17T12:09:45.250Z,22.15
2019-05-17T12:12:16.639Z,22.02
2019-05-17T12:14:48.685Z,21.91
2019-05-17T12:17:20.005Z,21.82
2019-05-17T12:19:50.989Z,21.76
2019-05-17T12:22:23.239Z,21.83
2019-05-17T12:24:54.939Z,21.74
2019-05-17T12:27:26.151Z,21.45
2019-05-17T12:29:57.625Z,21.08
2019-05-17T12:32:28.970Z,20.73
2019-05-17T12:35:00.681Z,20.57
2019-05-17T12:37:32.515Z,20.49
2019-05-17T12:40:04.472Z,20.25
2019-05-17T12:42:36.061Z,20.29
2019-05-17T12:45:07.654Z,20.37
2019-05-17T12:47:39.145Z,20.32
2019-05-17T12:50:10.892Z,20.35
2019-05-17T12:52:42.188Z,20.19
2019-05-17T12:55:13.561Z,20.24
2019-05-17T12:57:45.603Z,20.40
2019-05-17T13:00:17.911Z,20.26
2019-05-17T13:02:49.213Z,20.19
2019-05-17T13:05:20.385Z,20.08
2019-05-17T13:07:51.690Z,20.13
2019-05-17T13:10:22.964Z,20.24
2019-05-17T13:12:54.110Z,20.18
2019-05-17T13:15:26.942Z,20.17
2019-05-17T13:17:57.948Z,20.24
2019-05-17T13:20:29.187Z,20.19
2019-05-17T13:23:00.242Z,20.28
2019-05-17T13:25:31.716Z,20.39
2019-05-17T13:28:03.075Z,20.18
2019-05-17T13:30:34.157Z,20.13
2019-05-17T13:33:05.471Z,20.02
2019-05-17T13:35:37.418Z,20.07
2019-05-17T13:38:08.582Z,20.12
2019-05-17T13:40:40.234Z,20.10
2019-05-17T13:43:11.649Z,20.13
2019-05-17T13:45:43.937Z,19.97
2019-05-17T13:48:15.929Z,19.82
2019-05-17T13:50:47.174Z,19.62
2019-05-17T13:53:20.712Z,19.46
2019-05-17T13:55:51.748Z,19.32
2019-05-17T13:58:22.667Z,19.35
2019-05-17T14:00:53.550Z,19.41
2019-05-17T14:03:24.996Z,19.31
2019-05-17T14:05:56.201Z,19.35
2019-05-17T14:08:27.247Z,19.37
2019-05-17T14:10:58.263Z,19.11
2019-05-17T14:13:29.592Z,18.98
2019-05-17T14:16:00.886Z,18.66
2019-05-17T14:18:32.498Z,18.55
2019-05-17T14:21:03.937Z,18.43
2019-05-17T14:23:35.113Z,18.37
2019-05-17T14:26:06.781Z,18.07
2019-05-17T14:28:38.871Z,18.01
2019-05-17T14:31:10.641Z,17.68
2019-05-17T14:33:41.865Z,17.32
2019-05-17T14:36:13.055Z,17.16
2019-05-17T14:38:44.421Z,17.12
2019-05-17T14:41:15.857Z,16.98
2019-05-17T14:43:47.714Z,16.82
2019-05-17T14:46:20.545Z,16.82
2019-05-17T14:48:52.951Z,16.57
2019-05-17T14:51:24.716Z,16.50
2019-05-17T14:53:55.914Z,16.39
2019-05-17T14:56:28.590Z,16.40
2019-05-17T14:58:59.519Z,16.39
2019-05-17T15:01:32.889Z,16.43
2019-05-17T15:04:03.878Z,16.46
2019-05-17T15:06:35.336Z,16.43
2019-05-17T15:09:11.330Z,16.34
2019-05-17T15:11:40.905Z,16.27
2019-05-17T15:14:12.479Z,16.30
2019-05-17T15:16:43.683Z,16.34
2019-05-17T15:19:15.383Z,16.27
2019-05-17T15:21:46.810Z,16.14
2019-05-17T15:24:18.304Z,16.19
2019-05-17T15:27:04.078Z,16.21
2019-05-17T15:29:22.216Z,16.18
2019-05-17T15:31:53.399Z,16.09
2019-05-17T15:34:24.957Z,16.05
2019-05-17T15:36:55.956Z,16.03
2019-05-17T15:39:26.892Z,16.04
2019-05-17T15:41:58.020Z,16.07
2019-05-17T15:44:30.027Z,15.82
2019-05-17T15:47:01.126Z,15.82
2019-05-17T15:49:32.077Z,15.85
2019-05-17T15:52:03.201Z,15.83
2019-05-17T15:54:33.944Z,15.90
2019-05-17T15:57:05.798Z,15.98
2019-05-17T15:59:36.671Z,15.96
2019-05-17T16:02:07.877Z,15.88
2019-05-17T16:04:39.166Z,15.86
2019-05-17T16:07:11.521Z,15.52
2019-05-17T16:09:42.933Z,15.42
2019-05-17T16:12:14.508Z,15.42
2019-05-17T16:14:45.398Z,15.43
2019-05-17T16:17:16.379Z,15.43
2019-05-17T16:19:47.643Z,15.46
2019-05-17T16:22:18.805Z,15.43
2019-05-17T16:24:50.950Z,15.43
2019-05-17T16:27:21.831Z,15.48
2019-05-17T16:29:53.120Z,15.51
2019-05-17T16:32:24.396Z,15.49
2019-05-17T16:34:55.554Z,15.27
2019-05-17T16:37:26.564Z,15.18
2019-05-17T16:39:57.663Z,15.06
2019-05-17T16:42:29.212Z,15.06
2019-05-17T16:45:00.566Z,15.00
2019-05-17T16:47:31.659Z,15.00
2019-05-17T16:50:02.870Z,14.96
2019-05-17T16:52:35.213Z,14.96
2019-05-17T16:55:07.185Z,15.04
2019-05-17T16:57:38.694Z,15.07
2019-05-17T17:00:29.866Z,15.09
2019-05-17T17:03:01.117Z,15.09
2019-05-17T17:05:32.236Z,15.13
2019-05-17T17:08:03.129Z,15.28
2019-05-17T17:10:34.244Z,15.33
2019-05-17T17:13:06.118Z,15.37
2019-05-17T17:15:37.275Z,15.37
2019-05-17T17:18:08.548Z,15.38
2019-05-17T17:20:40.120Z,15.46
2019-05-17T17:23:11.248Z,15.53
2019-05-17T17:25:42.562Z,15.52
2019-05-17T17:28:14.499Z,15.44
2019-05-17T17:30:45.835Z,15.46
2019-05-17T17:33:17.519Z,15.43
2019-05-17T17:35:49.572Z,15.46
2019-05-17T17:38:20.711Z,15.50
2019-05-17T17:40:52.023Z,15.41
2019-05-17T17:43:23.055Z,15.47
2019-05-17T17:45:54.093Z,15.49
2019-05-17T17:48:25.445Z,15.50
2019-05-17T17:50:56.363Z,15.40
2019-05-17T17:53:28.362Z,15.21
2019-05-17T17:55:59.557Z,15.20
2019-05-17T17:58:30.827Z,14.99
2019-05-17T18:01:02.147Z,15.01
2019-05-17T18:03:33.241Z,14.93
2019-05-17T18:06:04.196Z,14.97
2019-05-17T18:08:35.564Z,14.97
2019-05-17T18:11:06.754Z,14.82
2019-05-17T18:13:38.346Z,14.80
2019-05-17T18:16:09.619Z,14.69
2019-05-17T18:18:40.847Z,14.68
2019-05-17T18:21:12.143Z,14.73
2019-05-17T18:23:43.122Z,14.59
2019-05-17T18:26:14.487Z,14.70
2019-05-17T18:28:45.934Z,14.69
2019-05-17T18:31:17.101Z,14.69
2019-05-17T18:33:48.298Z,14.79
2019-05-17T18:36:19.270Z,14.79
2019-05-17T18:38:54.143Z,14.79
2019-05-17T18:41:25.227Z,14.74
2019-05-17T18:43:56.584Z,14.78
2019-05-17T18:46:27.737Z,14.78
2019-05-17T18:48:59.189Z,14.86
2019-05-17T18:51:30.473Z,14.85
2019-05-17T18:54:02.132Z,14.85
2019-05-17T18:56:33.430Z,14.75
2019-05-17T18:59:04.342Z,14.75
2019-05-17T19:01:35.383Z,14.71
2019-05-17T19:04:06.518Z,14.51
2019-05-17T19:06:37.656Z,14.57
2019-05-17T19:09:09.008Z,14.55
2019-05-17T19:11:40.082Z,14.55
2019-05-17T19:14:11.523Z,14.51
2019-05-17T19:16:43.038Z,14.43
2019-05-17T19:19:14.120Z,14.42
2019-05-17T19:21:45.047Z,14.23
2019-05-17T19:24:17.722Z,14.10
2019-05-17T19:26:48.794Z,14.24
2019-05-17T19:29:20.420Z,14.33
2019-05-17T19:31:52.434Z,14.33
2019-05-17T19:34:24.025Z,14.37
2019-05-17T19:36:55.251Z,14.49
2019-05-17T19:39:26.875Z,14.55
2019-05-17T19:41:58.233Z,14.46
2019-05-17T19:44:29.257Z,14.46
2019-05-17T19:47:00.492Z,14.39
2019-05-17T19:49:31.672Z,14.39
2019-05-17T19:52:02.729Z,14.44
2019-05-17T19:54:34.199Z,14.50
2019-05-17T19:57:05.621Z,14.50
2019-05-17T19:59:37.115Z,14.61
2019-05-17T20:02:08.279Z,14.55
2019-05-17T20:04:41.086Z,14.47
2019-05-17T20:07:12.181Z,14.47
2019-05-17T20:09:43.576Z,14.53
2019-05-17T20:12:14.738Z,14.51
2019-05-17T20:14:45.908Z,14.51
2019-05-17T20:17:17.126Z,14.43
2019-05-17T20:19:48.623Z,14.47
2019-05-17T20:22:19.930Z,14.53
2019-05-17T20:24:50.999Z,14.43
2019-05-17T20:27:21.992Z,14.45
2019-05-17T20:29:53.192Z,14.46
2019-05-17T20:32:24.304Z,14.38
2019-05-17T20:34:55.347Z,14.29
2019-05-17T20:37:26.502Z,14.29
2019-05-17T20:39:57.773Z,14.31
2019-05-17T20:42:28.734Z,14.31
2019-05-17T20:44:59.785Z,14.19
2019-05-17T20:47:31.053Z,14.11
2019-05-17T20:50:01.972Z,14.11
2019-05-17T20:52:32.935Z,14.20
2019-05-17T20:55:04.012Z,14.20
2019-05-17T20:57:35.163Z,14.16
2019-05-17T21:00:09.467Z,14.10
2019-05-17T21:02:40.796Z,14.08
2019-05-17T21:05:14.086Z,13.87
2019-05-17T21:07:45.719Z,13.74
2019-05-17T21:10:17.091Z,13.82
2019-05-17T21:12:48.265Z,13.78
2019-05-17T21:15:19.570Z,13.80
2019-05-17T21:17:51.089Z,13.76
2019-05-17T21:20:22.172Z,13.65
2019-05-17T21:22:54.428Z,13.59
2019-05-17T21:25:25.520Z,13.58
2019-05-17T21:27:56.673Z,13.60
2019-05-17T21:30:27.517Z,13.64
2019-05-17T21:32:59.007Z,13.61
2019-05-17T21:35:30.256Z,13.47
2019-05-17T21:38:01.391Z,13.51
2019-05-17T21:40:33.315Z,13.43
2019-05-17T21:43:04.764Z,13.29
2019-05-17T21:45:36.407Z,13.23
2019-05-17T21:48:07.898Z,13.14
2019-05-17T21:50:39.068Z,13.12
2019-05-17T21:53:10.555Z,13.02
2019-05-17T21:55:41.908Z,13.02
2019-05-17T21:58:12.949Z,13.04
2019-05-17T22:01:17.007Z,12.98
2019-05-17T22:03:48.686Z,12.99
2019-05-17T22:06:20.233Z,12.87
2019-05-17T22:08:52.326Z,12.83
2019-05-17T22:11:23.604Z,12.75
2019-05-17T22:13:54.982Z,12.74
2019-05-17T22:16:26.220Z,12.68
2019-05-17T22:18:57.424Z,12.69
2019-05-17T22:21:28.761Z,12.75
2019-05-17T22:24:00.140Z,12.73
2019-05-17T22:26:31.353Z,12.66
2019-05-17T22:29:02.526Z,12.58
2019-05-17T22:31:33.829Z,12.61
2019-05-17T22:34:05.257Z,12.67
2019-05-17T22:36:36.415Z,12.71
2019-05-17T22:39:08.531Z,12.76
2019-05-17T22:41:39.679Z,12.75
2019-05-17T22:44:10.757Z,12.74
2019-05-17T22:46:41.983Z,12.74
2019-05-17T22:49:12.909Z,12.67
2019-05-17T22:51:44.190Z,12.65
2019-05-17T22:54:15.463Z,12.43
2019-05-17T22:56:46.715Z,12.36
2019-05-17T22:59:17.797Z,12.34
2019-05-17T23:01:48.911Z,12.24
2019-05-17T23:04:19.878Z,12.19
2019-05-17T23:06:50.693Z,12.24
2019-05-17T23:09:21.733Z,12.18
2019-05-17T23:11:53.006Z,12.14
2019-05-17T23:14:24.105Z,12.12
2019-05-17T23:16:55.696Z,12.15
2019-05-17T23:19:26.737Z,12.13
2019-05-17T23:21:57.852Z,11.97
2019-05-17T23:24:29.490Z,11.97
2019-05-17T23:27:00.675Z,11.96
2019-05-17T23:29:31.895Z,11.85
2019-05-17T23:32:03.382Z,11.93
2019-05-17T23:34:34.420Z,11.80
2019-05-17T23:37:05.755Z,11.72
2019-05-17T23:39:36.901Z,11.67
2019-05-17T23:42:08.052Z,11.60
2019-05-17T23:44:39.164Z,11.65
2019-05-17T23:47:10.080Z,11.68
2019-05-17T23:49:41.383Z,11.44
2019-05-17T23:52:12.603Z,11.19
2019-05-17T23:54:43.946Z,11.19
2019-05-17T23:57:14.962Z,11.21
2019-05-17T23:59:47.649Z,11.32
